Terminal Aerodrome Forecast
Issued by NWS

Home | Current Version | Previous Version | Text Only | Print | Product List | Glossary On
Versions: 1 2 3 4 5 6 7 8 9 10 11 12 13 14 15 16 17
644
FTUS41 KBTV 290531
TAFSLK
TAF
KSLK 290531Z 2906/3006 35003KT P6SM BKN006 OVC018
     FM291300 34006KT P6SM OVC015
     FM291500 34007KT P6SM OVC025
     FM300100 34005KT P6SM OVC035=

USA.gov is the U.S. government's official web portal to all federal, state and local government web resources and services.